sensor_id;sensor_type;location;lat;lon;timestamp;temperature;humidity
13416;DHT22;6779;50.150;8.680;2022-12-29T00:01:43;10.30;99.90
13416;DHT22;6779;50.150;8.680;2022-12-29T00:04:11;10.40;99.90
13416;DHT22;6779;50.150;8.680;2022-12-29T00:06:38;10.30;99.90
13416;DHT22;6779;50.150;8.680;2022-12-29T00:09:04;10.30;99.90
13416;DHT22;6779;50.150;8.680;2022-12-29T00:11:29;10.30;99.90
13416;DHT22;6779;50.150;8.680;2022-12-29T00:13:55;10.30;99.90
13416;DHT22;6779;50.150;8.680;2022-12-29T00:16:43;10.30;99.90
13416;DHT22;6779;50.150;8.680;2022-12-29T00:19:09;10.30;99.90
13416;DHT22;6779;50.150;8.680;2022-12-29T00:21:54;10.30;1.00
13416;DHT22;6779;50.150;8.680;2022-12-29T00:24:38;10.30;99.90
13416;DHT22;6779;50.150;8.680;2022-12-29T00:27:27;10.20;99.90
13416;DHT22;6779;50.150;8.680;2022-12-29T00:30:14;10.00;1.00
13416;DHT22;6779;50.150;8.680;2022-12-29T00:32:59;9.90;1.00
13416;DHT22;6779;50.150;8.680;2022-12-29T00:35:58;9.90;1.00
13416;DHT22;6779;50.150;8.680;2022-12-29T00:38:25;9.90;99.90
13416;DHT22;6779;50.150;8.680;2022-12-29T00:41:09;9.90;99.90
13416;DHT22;6779;50.150;8.680;2022-12-29T00:43:53;10.00;99.90
13416;DHT22;6779;50.150;8.680;2022-12-29T00:46:34;9.90;1.00
13416;DHT22;6779;50.150;8.680;2022-12-29T00:49:00;10.00;99.90
13416;DHT22;6779;50.150;8.680;2022-12-29T00:51:45;10.00;99.90
13416;DHT22;6779;50.150;8.680;2022-12-29T00:54:10;10.10;99.90
13416;DHT22;6779;50.150;8.680;2022-12-29T00:56:36;10.00;99.90
13416;DHT22;6779;50.150;8.680;2022-12-29T00:59:03;9.90;1.00
13416;DHT22;6779;50.150;8.680;2022-12-29T01:01:29;9.90;1.00
13416;DHT22;6779;50.150;8.680;2022-12-29T01:03:55;9.90;1.00
13416;DHT22;6779;50.150;8.680;2022-12-29T01:06:20;9.90;1.00
13416;DHT22;6779;50.150;8.680;2022-12-29T01:08:46;9.90;1.00
13416;DHT22;6779;50.150;8.680;2022-12-29T01:11:12;10.00;1.00
13416;DHT22;6779;50.150;8.680;2022-12-29T01:13:38;10.10;1.00
13416;DHT22;6779;50.150;8.680;2022-12-29T01:16:06;10.10;99.90
13416;DHT22;6779;50.150;8.680;2022-12-29T01:18:32;10.10;99.90
13416;DHT22;6779;50.150;8.680;2022-12-29T01:20:59;10.10;1.00
13416;DHT22;6779;50.150;8.680;2022-12-29T01:23:25;10.20;99.90
13416;DHT22;6779;50.150;8.680;2022-12-29T01:25:51;10.20;99.90
13416;DHT22;6779;50.150;8.680;2022-12-29T01:28:16;10.30;99.90
13416;DHT22;6779;50.150;8.680;2022-12-29T01:30:41;10.30;99.90
13416;DHT22;6779;50.150;8.680;2022-12-29T01:33:07;10.30;99.90
13416;DHT22;6779;50.150;8.680;2022-12-29T01:35:32;10.40;99.90
13416;DHT22;6779;50.150;8.680;2022-12-29T01:37:58;10.40;99.90
13416;DHT22;6779;50.150;8.680;2022-12-29T01:40:23;10.50;99.90
13416;DHT22;6779;50.150;8.680;2022-12-29T01:42:49;10.50;99.90
13416;DHT22;6779;50.150;8.680;2022-12-29T01:45:16;10.50;99.90
13416;DHT22;6779;50.150;8.680;2022-12-29T01:47:54;10.50;99.90
13416;DHT22;6779;50.150;8.680;2022-12-29T01:50:30;10.50;99.90
13416;DHT22;6779;50.150;8.680;2022-12-29T01:53:11;10.50;99.90
13416;DHT22;6779;50.150;8.680;2022-12-29T01:55:41;10.50;99.90
13416;DHT22;6779;50.150;8.680;2022-12-29T01:58:09;10.50;99.90
13416;DHT22;6779;50.150;8.680;2022-12-29T02:00:37;10.40;1.00
13416;DHT22;6779;50.150;8.680;2022-12-29T02:03:03;10.40;1.00
13416;DHT22;6779;50.150;8.680;2022-12-29T02:08:38;10.40;1.00
13416;DHT22;6779;50.150;8.680;2022-12-29T02:11:03;10.40;1.00
13416;DHT22;6779;50.150;8.680;2022-12-29T02:13:30;10.40;1.00
13416;DHT22;6779;50.150;8.680;2022-12-29T02:19:58;10.40;1.00
13416;DHT22;6779;50.150;8.680;2022-12-29T02:22:45;10.40;1.00
13416;DHT22;6779;50.150;8.680;2022-12-29T02:25:53;10.40;1.00
13416;DHT22;6779;50.150;8.680;2022-12-29T02:37:30;10.50;1.00
13416;DHT22;6779;50.150;8.680;2022-12-29T02:48:24;10.50;1.00
13416;DHT22;6779;50.150;8.680;2022-12-29T02:51:00;10.50;1.00
13416;DHT22;6779;50.150;8.680;2022-12-29T02:53:27;10.50;1.00
13416;DHT22;6779;50.150;8.680;2022-12-29T02:56:12;10.50;1.00
13416;DHT22;6779;50.150;8.680;2022-12-29T02:58:38;10.50;1.00
13416;DHT22;6779;50.150;8.680;2022-12-29T03:06:59;10.50;1.00
13416;DHT22;6779;50.150;8.680;2022-12-29T03:15:10;10.60;99.90
13416;DHT22;6779;50.150;8.680;2022-12-29T03:18:19;10.50;99.90
13416;DHT22;6779;50.150;8.680;2022-12-29T03:20:58;10.60;1.00
13416;DHT22;6779;50.150;8.680;2022-12-29T03:23:25;10.60;99.90
13416;DHT22;6779;50.150;8.680;2022-12-29T03:25:55;10.70;99.90
13416;DHT22;6779;50.150;8.680;2022-12-29T03:28:28;10.70;99.90
13416;DHT22;6779;50.150;8.680;2022-12-29T03:30:57;10.70;99.90
13416;DHT22;6779;50.150;8.680;2022-12-29T03:33:25;10.70;99.90
13416;DHT22;6779;50.150;8.680;2022-12-29T03:35:59;10.70;99.90
13416;DHT22;6779;50.150;8.680;2022-12-29T03:41:11;10.80;1.00
13416;DHT22;6779;50.150;8.680;2022-12-29T03:43:38;10.80;1.00
13416;DHT22;6779;50.150;8.680;2022-12-29T03:46:04;10.80;1.00
13416;DHT22;6779;50.150;8.680;2022-12-29T03:48:29;10.80;1.00
13416;DHT22;6779;50.150;8.680;2022-12-29T03:50:55;10.90;99.90
13416;DHT22;6779;50.150;8.680;2022-12-29T03:53:20;10.90;99.90
13416;DHT22;6779;50.150;8.680;2022-12-29T03:55:46;10.90;99.90
13416;DHT22;6779;50.150;8.680;2022-12-29T03:58:12;10.90;23.80
13416;DHT22;6779;50.150;8.680;2022-12-29T04:00:37;10.90;99.90
13416;DHT22;6779;50.150;8.680;2022-12-29T04:03:03;10.90;1.00
13416;DHT22;6779;50.150;8.680;2022-12-29T04:05:28;11.00;62.50
13416;DHT22;6779;50.150;8.680;2022-12-29T04:07:54;10.90;99.90
13416;DHT22;6779;50.150;8.680;2022-12-29T04:10:19;11.00;99.90
13416;DHT22;6779;50.150;8.680;2022-12-29T04:12:45;10.90;1.10
13416;DHT22;6779;50.150;8.680;2022-12-29T04:15:11;11.10;24.00
13416;DHT22;6779;50.150;8.680;2022-12-29T04:17:37;11.10;99.90
13416;DHT22;6779;50.150;8.680;2022-12-29T04:20:03;11.10;99.90
13416;DHT22;6779;50.150;8.680;2022-12-29T04:22:48;11.20;1.00
13416;DHT22;6779;50.150;8.680;2022-12-29T04:25:13;11.20;99.90
13416;DHT22;6779;50.150;8.680;2022-12-29T04:27:39;11.30;99.30
13416;DHT22;6779;50.150;8.680;2022-12-29T04:30:04;11.30;84.00
13416;DHT22;6779;50.150;8.680;2022-12-29T04:32:30;11.30;1.00
13416;DHT22;6779;50.150;8.680;2022-12-29T04:34:56;11.40;1.00
13416;DHT22;6779;50.150;8.680;2022-12-29T04:37:21;11.30;1.00
13416;DHT22;6779;50.150;8.680;2022-12-29T04:39:47;11.30;1.00
13416;DHT22;6779;50.150;8.680;2022-12-29T04:42:12;11.30;1.00
13416;DHT22;6779;50.150;8.680;2022-12-29T04:44:38;11.30;99.90
13416;DHT22;6779;50.150;8.680;2022-12-29T04:47:03;11.40;99.90
13416;DHT22;6779;50.150;8.680;2022-12-29T04:49:29;11.40;99.90
13416;DHT22;6779;50.150;8.680;2022-12-29T04:51:54;11.40;99.90
13416;DHT22;6779;50.150;8.680;2022-12-29T04:54:19;11.40;99.90
13416;DHT22;6779;50.150;8.680;2022-12-29T04:56:45;11.40;1.00
13416;DHT22;6779;50.150;8.680;2022-12-29T04:59:10;11.50;1.00
13416;DHT22;6779;50.150;8.680;2022-12-29T05:01:36;11.50;1.00
13416;DHT22;6779;50.150;8.680;2022-12-29T05:04:01;11.60;99.90
13416;DHT22;6779;50.150;8.680;2022-12-29T05:06:27;11.70;99.90
13416;DHT22;6779;50.150;8.680;2022-12-29T05:08:52;11.60;99.90
13416;DHT22;6779;50.150;8.680;2022-12-29T05:11:18;11.70;99.90
13416;DHT22;6779;50.150;8.680;2022-12-29T05:13:46;11.60;99.90
13416;DHT22;6779;50.150;8.680;2022-12-29T05:16:12;11.50;1.00
13416;DHT22;6779;50.150;8.680;2022-12-29T05:18:38;11.50;76.10
13416;DHT22;6779;50.150;8.680;2022-12-29T05:21:03;11.50;99.90
13416;DHT22;6779;50.150;8.680;2022-12-29T05:23:29;11.50;99.90
13416;DHT22;6779;50.150;8.680;2022-12-29T05:25:54;11.50;99.90
13416;DHT22;6779;50.150;8.680;2022-12-29T05:28:20;11.40;99.90
13416;DHT22;6779;50.150;8.680;2022-12-29T05:30:51;11.40;1.00
13416;DHT22;6779;50.150;8.680;2022-12-29T05:33:17;11.50;99.90
13416;DHT22;6779;50.150;8.680;2022-12-29T05:35:43;11.50;1.00
13416;DHT22;6779;50.150;8.680;2022-12-29T05:38:09;11.30;1.00
13416;DHT22;6779;50.150;8.680;2022-12-29T05:40:35;11.30;99.90
13416;DHT22;6779;50.150;8.680;2022-12-29T05:43:00;11.20;1.00
13416;DHT22;6779;50.150;8.680;2022-12-29T05:45:26;11.20;99.90
13416;DHT22;6779;50.150;8.680;2022-12-29T05:47:51;11.20;1.00
13416;DHT22;6779;50.150;8.680;2022-12-29T05:50:17;11.30;99.90
13416;DHT22;6779;50.150;8.680;2022-12-29T05:52:42;11.30;99.90
13416;DHT22;6779;50.150;8.680;2022-12-29T05:55:08;11.30;99.90
13416;DHT22;6779;50.150;8.680;2022-12-29T05:57:34;11.30;8.70
13416;DHT22;6779;50.150;8.680;2022-12-29T05:59:59;11.30;1.00
13416;DHT22;6779;50.150;8.680;2022-12-29T06:02:25;11.40;99.90
13416;DHT22;6779;50.150;8.680;2022-12-29T06:04:50;11.50;99.90
13416;DHT22;6779;50.150;8.680;2022-12-29T06:07:16;11.40;99.90
13416;DHT22;6779;50.150;8.680;2022-12-29T06:09:41;11.60;1.00
13416;DHT22;6779;50.150;8.680;2022-12-29T06:12:07;11.60;1.00
13416;DHT22;6779;50.150;8.680;2022-12-29T06:14:32;11.60;1.00
13416;DHT22;6779;50.150;8.680;2022-12-29T06:16:58;11.60;99.90
13416;DHT22;6779;50.150;8.680;2022-12-29T06:19:23;11.70;99.90
13416;DHT22;6779;50.150;8.680;2022-12-29T06:21:49;11.70;99.90
13416;DHT22;6779;50.150;8.680;2022-12-29T06:24:14;11.70;99.90
13416;DHT22;6779;50.150;8.680;2022-12-29T06:26:40;11.80;99.90
13416;DHT22;6779;50.150;8.680;2022-12-29T06:29:07;11.80;99.90
13416;DHT22;6779;50.150;8.680;2022-12-29T06:31:33;11.70;99.90
13416;DHT22;6779;50.150;8.680;2022-12-29T06:33:59;11.80;99.90
13416;DHT22;6779;50.150;8.680;2022-12-29T06:36:24;11.90;99.90
13416;DHT22;6779;50.150;8.680;2022-12-29T06:38:50;11.80;99.90
13416;DHT22;6779;50.150;8.680;2022-12-29T06:41:18;11.70;99.90
13416;DHT22;6779;50.150;8.680;2022-12-29T06:43:43;11.80;99.90
13416;DHT22;6779;50.150;8.680;2022-12-29T06:46:09;11.80;99.90
13416;DHT22;6779;50.150;8.680;2022-12-29T06:48:34;11.80;99.90
13416;DHT22;6779;50.150;8.680;2022-12-29T06:51:00;11.70;99.90
13416;DHT22;6779;50.150;8.680;2022-12-29T06:53:26;11.70;99.90
13416;DHT22;6779;50.150;8.680;2022-12-29T06:55:51;11.80;99.90
13416;DHT22;6779;50.150;8.680;2022-12-29T06:58:17;11.80;99.90
13416;DHT22;6779;50.150;8.680;2022-12-29T07:00:42;11.70;1.00
13416;DHT22;6779;50.150;8.680;2022-12-29T07:03:08;11.60;1.00
13416;DHT22;6779;50.150;8.680;2022-12-29T07:05:33;11.40;1.00
13416;DHT22;6779;50.150;8.680;2022-12-29T07:07:59;11.30;1.00
13416;DHT22;6779;50.150;8.680;2022-12-29T07:10:25;11.20;99.90
13416;DHT22;6779;50.150;8.680;2022-12-29T07:12:51;11.00;99.90
13416;DHT22;6779;50.150;8.680;2022-12-29T07:15:16;11.00;99.90
13416;DHT22;6779;50.150;8.680;2022-12-29T07:17:42;11.00;1.00
13416;DHT22;6779;50.150;8.680;2022-12-29T07:20:08;11.00;99.90
13416;DHT22;6779;50.150;8.680;2022-12-29T07:22:34;11.00;99.90
13416;DHT22;6779;50.150;8.680;2022-12-29T07:25:00;11.00;99.90
13416;DHT22;6779;50.150;8.680;2022-12-29T07:27:26;11.00;99.90
13416;DHT22;6779;50.150;8.680;2022-12-29T07:29:52;11.10;99.90
13416;DHT22;6779;50.150;8.680;2022-12-29T07:32:18;11.10;1.00
13416;DHT22;6779;50.150;8.680;2022-12-29T07:34:44;11.20;99.90
13416;DHT22;6779;50.150;8.680;2022-12-29T07:37:12;11.20;99.90
13416;DHT22;6779;50.150;8.680;2022-12-29T07:39:39;11.30;99.90
13416;DHT22;6779;50.150;8.680;2022-12-29T07:42:04;11.30;99.90
13416;DHT22;6779;50.150;8.680;2022-12-29T07:44:30;11.40;30.70
13416;DHT22;6779;50.150;8.680;2022-12-29T07:46:55;11.40;99.90
13416;DHT22;6779;50.150;8.680;2022-12-29T07:49:21;11.40;99.90
13416;DHT22;6779;50.150;8.680;2022-12-29T07:51:46;11.50;1.00
13416;DHT22;6779;50.150;8.680;2022-12-29T07:54:12;11.40;99.90
13416;DHT22;6779;50.150;8.680;2022-12-29T07:56:37;11.50;1.00
13416;DHT22;6779;50.150;8.680;2022-12-29T07:59:03;11.60;99.90
13416;DHT22;6779;50.150;8.680;2022-12-29T08:01:28;11.60;99.90
13416;DHT22;6779;50.150;8.680;2022-12-29T08:03:54;11.60;1.00
13416;DHT22;6779;50.150;8.680;2022-12-29T08:06:20;11.60;1.00
13416;DHT22;6779;50.150;8.680;2022-12-29T08:08:45;11.60;1.00
13416;DHT22;6779;50.150;8.680;2022-12-29T08:11:11;11.70;99.90
13416;DHT22;6779;50.150;8.680;2022-12-29T08:13:36;11.70;99.90
13416;DHT22;6779;50.150;8.680;2022-12-29T08:16:02;11.70;99.90
13416;DHT22;6779;50.150;8.680;2022-12-29T08:18:27;11.70;1.00
13416;DHT22;6779;50.150;8.680;2022-12-29T08:20:53;11.60;1.00
13416;DHT22;6779;50.150;8.680;2022-12-29T08:23:18;11.70;1.00
13416;DHT22;6779;50.150;8.680;2022-12-29T08:25:44;11.70;1.00
13416;DHT22;6779;50.150;8.680;2022-12-29T08:28:10;11.70;1.00
13416;DHT22;6779;50.150;8.680;2022-12-29T08:30:35;11.60;1.00
13416;DHT22;6779;50.150;8.680;2022-12-29T08:33:01;11.60;1.00
13416;DHT22;6779;50.150;8.680;2022-12-29T08:35:27;11.60;1.00
13416;DHT22;6779;50.150;8.680;2022-12-29T08:37:52;11.50;49.90
13416;DHT22;6779;50.150;8.680;2022-12-29T08:40:18;11.60;99.90
13416;DHT22;6779;50.150;8.680;2022-12-29T08:42:43;11.60;99.90
13416;DHT22;6779;50.150;8.680;2022-12-29T08:45:09;11.60;99.90
13416;DHT22;6779;50.150;8.680;2022-12-29T08:47:34;11.50;99.90
13416;DHT22;6779;50.150;8.680;2022-12-29T08:50:00;11.50;99.90
13416;DHT22;6779;50.150;8.680;2022-12-29T08:52:26;11.50;1.00
13416;DHT22;6779;50.150;8.680;2022-12-29T08:54:51;11.40;1.00
13416;DHT22;6779;50.150;8.680;2022-12-29T08:57:17;11.40;99.90
13416;DHT22;6779;50.150;8.680;2022-12-29T08:59:43;11.40;1.00
13416;DHT22;6779;50.150;8.680;2022-12-29T09:02:11;11.40;99.90
13416;DHT22;6779;50.150;8.680;2022-12-29T09:04:37;11.30;1.00
13416;DHT22;6779;50.150;8.680;2022-12-29T09:07:03;11.20;99.90
13416;DHT22;6779;50.150;8.680;2022-12-29T09:09:29;11.00;99.90
13416;DHT22;6779;50.150;8.680;2022-12-29T09:11:55;10.90;1.00
13416;DHT22;6779;50.150;8.680;2022-12-29T09:14:20;10.80;1.00
13416;DHT22;6779;50.150;8.680;2022-12-29T09:16:46;10.70;10.00
13416;DHT22;6779;50.150;8.680;2022-12-29T09:19:31;10.60;45.90
13416;DHT22;6779;50.150;8.680;2022-12-29T09:21:56;10.50;99.90
13416;DHT22;6779;50.150;8.680;2022-12-29T09:24:22;10.50;99.90
13416;DHT22;6779;50.150;8.680;2022-12-29T09:26:47;10.50;99.90
13416;DHT22;6779;50.150;8.680;2022-12-29T09:29:13;10.50;99.90
13416;DHT22;6779;50.150;8.680;2022-12-29T09:31:38;10.50;99.90
13416;DHT22;6779;50.150;8.680;2022-12-29T09:34:04;10.50;99.90
13416;DHT22;6779;50.150;8.680;2022-12-29T09:36:29;10.50;99.90
13416;DHT22;6779;50.150;8.680;2022-12-29T09:38:55;10.60;99.90
13416;DHT22;6779;50.150;8.680;2022-12-29T09:41:31;10.50;99.90
13416;DHT22;6779;50.150;8.680;2022-12-29T09:46:50;10.50;99.90
13416;DHT22;6779;50.150;8.680;2022-12-29T09:51:57;10.40;99.90
13416;DHT22;6779;50.150;8.680;2022-12-29T09:57:28;10.30;99.90
13416;DHT22;6779;50.150;8.680;2022-12-29T10:00:14;10.30;99.90
13416;DHT22;6779;50.150;8.680;2022-12-29T10:03:03;10.20;99.90
13416;DHT22;6779;50.150;8.680;2022-12-29T10:08:10;10.30;99.90
13416;DHT22;6779;50.150;8.680;2022-12-29T10:11:00;10.30;99.90
13416;DHT22;6779;50.150;8.680;2022-12-29T10:19:25;10.30;99.90
13416;DHT22;6779;50.150;8.680;2022-12-29T10:24:38;10.20;99.90
13416;DHT22;6779;50.150;8.680;2022-12-29T10:27:12;10.10;99.90
13416;DHT22;6779;50.150;8.680;2022-12-29T10:29:43;10.10;99.90
13416;DHT22;6779;50.150;8.680;2022-12-29T10:32:34;10.10;99.90
13416;DHT22;6779;50.150;8.680;2022-12-29T10:35:09;10.00;99.90
13416;DHT22;6779;50.150;8.680;2022-12-29T10:37:47;10.00;99.90
13416;DHT22;6779;50.150;8.680;2022-12-29T10:40:24;10.00;99.90
13416;DHT22;6779;50.150;8.680;2022-12-29T10:42:54;10.00;64.50
13416;DHT22;6779;50.150;8.680;2022-12-29T10:45:22;10.10;48.60
13416;DHT22;6779;50.150;8.680;2022-12-29T10:48:06;10.10;1.00
13416;DHT22;6779;50.150;8.680;2022-12-29T10:50:34;10.20;1.00
13416;DHT22;6779;50.150;8.680;2022-12-29T10:53:02;10.20;1.00
13416;DHT22;6779;50.150;8.680;2022-12-29T10:55:35;10.20;99.90
13416;DHT22;6779;50.150;8.680;2022-12-29T10:58:04;10.30;99.90
13416;DHT22;6779;50.150;8.680;2022-12-29T11:00:32;10.40;99.90
13416;DHT22;6779;50.150;8.680;2022-12-29T11:06:09;10.50;1.00
13416;DHT22;6779;50.150;8.680;2022-12-29T11:08:39;10.50;99.90
13416;DHT22;6779;50.150;8.680;2022-12-29T11:11:08;10.50;99.90
13416;DHT22;6779;50.150;8.680;2022-12-29T11:13:51;10.60;99.90
13416;DHT22;6779;50.150;8.680;2022-12-29T11:16:32;10.80;99.90
13416;DHT22;6779;50.150;8.680;2022-12-29T11:18:59;11.00;1.00
13416;DHT22;6779;50.150;8.680;2022-12-29T11:21:35;11.20;1.00
13416;DHT22;6779;50.150;8.680;2022-12-29T11:26:50;11.30;99.90
13416;DHT22;6779;50.150;8.680;2022-12-29T11:34:08;13.90;99.90
13416;DHT22;6779;50.150;8.680;2022-12-29T11:36:34;14.60;99.90
13416;DHT22;6779;50.150;8.680;2022-12-29T11:39:01;14.50;99.90
13416;DHT22;6779;50.150;8.680;2022-12-29T11:41:31;14.30;99.90
13416;DHT22;6779;50.150;8.680;2022-12-29T11:43:59;14.00;99.90
13416;DHT22;6779;50.150;8.680;2022-12-29T11:46:29;14.20;99.90
13416;DHT22;6779;50.150;8.680;2022-12-29T11:48:56;14.10;99.90
13416;DHT22;6779;50.150;8.680;2022-12-29T11:51:28;13.70;99.90
13416;DHT22;6779;50.150;8.680;2022-12-29T11:54:00;13.10;99.90
13416;DHT22;6779;50.150;8.680;2022-12-29T11:59:24;12.90;99.90
13416;DHT22;6779;50.150;8.680;2022-12-29T12:05:20;12.60;1.00
13416;DHT22;6779;50.150;8.680;2022-12-29T12:07:52;12.60;1.00
13416;DHT22;6779;50.150;8.680;2022-12-29T12:10:38;12.70;1.00
13416;DHT22;6779;50.150;8.680;2022-12-29T12:13:17;12.70;99.90
13416;DHT22;6779;50.150;8.680;2022-12-29T12:15:47;12.60;99.90
13416;DHT22;6779;50.150;8.680;2022-12-29T12:18:22;13.00;99.90
13416;DHT22;6779;50.150;8.680;2022-12-29T12:20:57;12.80;99.90
13416;DHT22;6779;50.150;8.680;2022-12-29T12:23:31;12.90;99.90
13416;DHT22;6779;50.150;8.680;2022-12-29T12:26:09;12.90;99.90
13416;DHT22;6779;50.150;8.680;2022-12-29T12:28:56;12.90;99.90
13416;DHT22;6779;50.150;8.680;2022-12-29T12:34:04;12.70;99.90
13416;DHT22;6779;50.150;8.680;2022-12-29T12:39:39;12.50;99.90
13416;DHT22;6779;50.150;8.680;2022-12-29T12:45:29;12.30;99.90
13416;DHT22;6779;50.150;8.680;2022-12-29T12:48:30;12.40;99.90
13416;DHT22;6779;50.150;8.680;2022-12-29T12:51:11;12.40;99.90
13416;DHT22;6779;50.150;8.680;2022-12-29T12:59:20;12.10;1.00
13416;DHT22;6779;50.150;8.680;2022-12-29T13:02:01;12.10;1.00
13416;DHT22;6779;50.150;8.680;2022-12-29T13:04:56;12.00;1.00
13416;DHT22;6779;50.150;8.680;2022-12-29T13:13:49;11.90;99.90
13416;DHT22;6779;50.150;8.680;2022-12-29T13:25:25;11.80;99.90
13416;DHT22;6779;50.150;8.680;2022-12-29T13:31:08;12.20;38.10
13416;DHT22;6779;50.150;8.680;2022-12-29T13:36:40;12.50;1.00
13416;DHT22;6779;50.150;8.680;2022-12-29T13:41:56;12.60;1.00
13416;DHT22;6779;50.150;8.680;2022-12-29T13:44:28;12.50;1.00
13416;DHT22;6779;50.150;8.680;2022-12-29T13:46:58;12.40;99.90
13416;DHT22;6779;50.150;8.680;2022-12-29T13:49:25;12.30;99.90
13416;DHT22;6779;50.150;8.680;2022-12-29T13:51:57;12.20;99.90
13416;DHT22;6779;50.150;8.680;2022-12-29T14:00:11;12.20;99.90
13416;DHT22;6779;50.150;8.680;2022-12-29T14:02:50;12.10;99.90
13416;DHT22;6779;50.150;8.680;2022-12-29T14:05:30;12.10;99.90
13416;DHT22;6779;50.150;8.680;2022-12-29T14:08:04;12.10;99.90
13416;DHT22;6779;50.150;8.680;2022-12-29T14:10:37;12.10;99.90
13416;DHT22;6779;50.150;8.680;2022-12-29T14:13:22;12.10;99.90
13416;DHT22;6779;50.150;8.680;2022-12-29T14:15:55;12.10;99.90
13416;DHT22;6779;50.150;8.680;2022-12-29T14:18:24;12.10;99.90
13416;DHT22;6779;50.150;8.680;2022-12-29T14:20:55;12.00;99.90
13416;DHT22;6779;50.150;8.680;2022-12-29T14:23:42;12.00;99.90
13416;DHT22;6779;50.150;8.680;2022-12-29T14:26:17;11.90;99.90
13416;DHT22;6779;50.150;8.680;2022-12-29T14:28:47;11.90;99.90
13416;DHT22;6779;50.150;8.680;2022-12-29T14:36:41;11.80;99.90
13416;DHT22;6779;50.150;8.680;2022-12-29T14:39:41;11.80;99.90
13416;DHT22;6779;50.150;8.680;2022-12-29T14:44:50;11.70;1.00
13416;DHT22;6779;50.150;8.680;2022-12-29T14:53:02;11.70;99.90
13416;DHT22;6779;50.150;8.680;2022-12-29T14:58:27;11.70;99.90
13416;DHT22;6779;50.150;8.680;2022-12-29T15:00:52;11.70;99.90
13416;DHT22;6779;50.150;8.680;2022-12-29T15:03:44;11.70;99.90
13416;DHT22;6779;50.150;8.680;2022-12-29T15:06:13;11.60;99.90
13416;DHT22;6779;50.150;8.680;2022-12-29T15:08:56;11.70;99.90
13416;DHT22;6779;50.150;8.680;2022-12-29T15:14:28;11.50;99.90
13416;DHT22;6779;50.150;8.680;2022-12-29T15:16:54;11.40;99.90
13416;DHT22;6779;50.150;8.680;2022-12-29T15:19:24;11.50;99.90
13416;DHT22;6779;50.150;8.680;2022-12-29T15:21:50;11.30;99.90
13416;DHT22;6779;50.150;8.680;2022-12-29T15:24:17;11.30;99.90
13416;DHT22;6779;50.150;8.680;2022-12-29T15:26:45;11.30;99.90
13416;DHT22;6779;50.150;8.680;2022-12-29T15:29:40;11.30;99.90
13416;DHT22;6779;50.150;8.680;2022-12-29T15:34:42;11.20;99.90
13416;DHT22;6779;50.150;8.680;2022-12-29T15:37:08;11.30;99.90
13416;DHT22;6779;50.150;8.680;2022-12-29T15:39:34;11.20;99.90
13416;DHT22;6779;50.150;8.680;2022-12-29T15:42:04;11.10;99.90
13416;DHT22;6779;50.150;8.680;2022-12-29T15:44:38;11.00;99.90
13416;DHT22;6779;50.150;8.680;2022-12-29T15:49:37;11.00;99.90
13416;DHT22;6779;50.150;8.680;2022-12-29T15:52:07;11.00;99.90
13416;DHT22;6779;50.150;8.680;2022-12-29T15:54:34;11.00;99.90
13416;DHT22;6779;50.150;8.680;2022-12-29T15:56:59;11.00;99.90
13416;DHT22;6779;50.150;8.680;2022-12-29T15:59:33;11.00;99.90
13416;DHT22;6779;50.150;8.680;2022-12-29T16:02:01;11.00;99.90
13416;DHT22;6779;50.150;8.680;2022-12-29T16:04:29;11.00;99.90
13416;DHT22;6779;50.150;8.680;2022-12-29T16:09:36;11.00;99.90
13416;DHT22;6779;50.150;8.680;2022-12-29T16:12:17;11.00;99.90
13416;DHT22;6779;50.150;8.680;2022-12-29T16:14:47;11.00;99.90
13416;DHT22;6779;50.150;8.680;2022-12-29T16:17:16;10.90;99.90
13416;DHT22;6779;50.150;8.680;2022-12-29T16:20:00;10.90;99.90
13416;DHT22;6779;50.150;8.680;2022-12-29T16:24:56;10.90;99.90
13416;DHT22;6779;50.150;8.680;2022-12-29T16:27:28;10.80;99.90
13416;DHT22;6779;50.150;8.680;2022-12-29T16:29:56;10.80;99.90
13416;DHT22;6779;50.150;8.680;2022-12-29T16:32:30;10.80;99.90
13416;DHT22;6779;50.150;8.680;2022-12-29T16:35:16;10.80;99.90
13416;DHT22;6779;50.150;8.680;2022-12-29T16:37:43;10.70;99.90
13416;DHT22;6779;50.150;8.680;2022-12-29T16:42:48;10.70;99.90
13416;DHT22;6779;50.150;8.680;2022-12-29T16:48:09;10.60;99.90
13416;DHT22;6779;50.150;8.680;2022-12-29T16:50:37;10.60;99.90
13416;DHT22;6779;50.150;8.680;2022-12-29T16:53:04;10.50;99.90
13416;DHT22;6779;50.150;8.680;2022-12-29T16:55:31;10.50;99.90
13416;DHT22;6779;50.150;8.680;2022-12-29T16:57:58;10.60;99.90
13416;DHT22;6779;50.150;8.680;2022-12-29T17:00:27;10.50;99.90
13416;DHT22;6779;50.150;8.680;2022-12-29T17:02:56;10.50;99.90
13416;DHT22;6779;50.150;8.680;2022-12-29T17:05:22;10.50;99.90
13416;DHT22;6779;50.150;8.680;2022-12-29T17:07:48;10.40;99.90
13416;DHT22;6779;50.150;8.680;2022-12-29T17:10:14;10.40;99.90
13416;DHT22;6779;50.150;8.680;2022-12-29T17:12:42;10.30;99.90
13416;DHT22;6779;50.150;8.680;2022-12-29T17:15:24;10.30;99.90
13416;DHT22;6779;50.150;8.680;2022-12-29T17:17:53;10.30;99.90
13416;DHT22;6779;50.150;8.680;2022-12-29T17:20:21;10.20;99.90
13416;DHT22;6779;50.150;8.680;2022-12-29T17:22:48;10.30;99.90
13416;DHT22;6779;50.150;8.680;2022-12-29T17:25:18;10.30;99.90
13416;DHT22;6779;50.150;8.680;2022-12-29T17:27:53;10.20;99.90
13416;DHT22;6779;50.150;8.680;2022-12-29T17:30:22;10.20;99.90
13416;DHT22;6779;50.150;8.680;2022-12-29T17:32:52;10.20;99.90
13416;DHT22;6779;50.150;8.680;2022-12-29T17:35:20;10.20;99.90
13416;DHT22;6779;50.150;8.680;2022-12-29T17:37:47;10.20;99.90
13416;DHT22;6779;50.150;8.680;2022-12-29T17:40:15;10.20;99.90
13416;DHT22;6779;50.150;8.680;2022-12-29T17:42:43;10.10;99.90
13416;DHT22;6779;50.150;8.680;2022-12-29T17:45:15;10.20;99.90
13416;DHT22;6779;50.150;8.680;2022-12-29T17:47:41;10.10;99.90
13416;DHT22;6779;50.150;8.680;2022-12-29T17:50:11;10.10;99.90
13416;DHT22;6779;50.150;8.680;2022-12-29T17:52:38;10.10;99.90
13416;DHT22;6779;50.150;8.680;2022-12-29T17:55:04;10.10;99.90
13416;DHT22;6779;50.150;8.680;2022-12-29T17:57:29;10.10;99.90
13416;DHT22;6779;50.150;8.680;2022-12-29T17:59:55;10.10;99.90
13416;DHT22;6779;50.150;8.680;2022-12-29T18:02:30;10.10;99.90
13416;DHT22;6779;50.150;8.680;2022-12-29T18:04:59;10.00;99.90
13416;DHT22;6779;50.150;8.680;2022-12-29T18:07:28;10.00;99.90
13416;DHT22;6779;50.150;8.680;2022-12-29T18:09:54;10.00;99.90
13416;DHT22;6779;50.150;8.680;2022-12-29T18:12:30;10.00;99.90
13416;DHT22;6779;50.150;8.680;2022-12-29T18:14:57;10.00;99.90
13416;DHT22;6779;50.150;8.680;2022-12-29T18:17:23;10.00;99.90
13416;DHT22;6779;50.150;8.680;2022-12-29T18:19:48;10.00;99.90
13416;DHT22;6779;50.150;8.680;2022-12-29T18:22:16;10.00;99.90
13416;DHT22;6779;50.150;8.680;2022-12-29T18:24:42;10.00;99.90
13416;DHT22;6779;50.150;8.680;2022-12-29T18:27:12;9.90;99.90
13416;DHT22;6779;50.150;8.680;2022-12-29T18:29:38;9.90;99.90
13416;DHT22;6779;50.150;8.680;2022-12-29T18:32:05;10.00;99.90
13416;DHT22;6779;50.150;8.680;2022-12-29T18:34:32;9.90;99.90
13416;DHT22;6779;50.150;8.680;2022-12-29T18:36:58;10.00;99.90
13416;DHT22;6779;50.150;8.680;2022-12-29T18:39:24;9.90;99.90
13416;DHT22;6779;50.150;8.680;2022-12-29T18:41:49;9.90;1.00